Time;durP1;ratioP1;P1;durP2;ratioP2;P2;SDS_P1;SDS_P2;PMS_P1;PMS_P2;Temp;Humidity;BMP_temperature;BMP_pressure;BME280_temperature;BME280_humidity;BME280_pressure;Samples;Min_cycle;Max_cycle;Signal;HPM_P1;HPM_P2
2022/07/25 00:01:55;;;;;;;8.57;6.50;;;;;;;;;;6237033;23;20004;-69
2022/07/25 00:04:21;;;;;;;8.13;6.30;;;;;;;;;;6238744;23;20334;-69
2022/07/25 00:06:47;;;;;;;6.38;5.78;;;;;;;;;;6237769;23;20005;-69
2022/07/25 00:09:13;;;;;;;7.90;6.30;;;;;;;;;;6238446;23;20010;-69
2022/07/25 00:11:40;;;;;;;9.18;5.70;;;;;;;;;;6236896;23;20175;-70
2022/07/25 00:14:06;;;;;;;6.00;5.50;;;;;;;;;;6237933;23;20020;-72
2022/07/25 00:16:32;;;;;;;6.15;5.55;;;;;;;;;;6238963;23;20004;-70
2022/07/25 00:18:58;;;;;;;6.13;5.53;;;;;;;;;;6239084;23;20302;-70
2022/07/25 00:21:24;;;;;;;6.40;5.68;;;;;;;;;;6236263;23;20059;-69
2022/07/25 00:23:51;;;;;;;8.40;5.65;;;;;;;;;;6236119;23;20081;-70
2022/07/25 00:26:17;;;;;;;9.10;6.13;;;;;;;;;;6236498;23;20333;-71
2022/07/25 00:28:43;;;;;;;6.30;5.70;;;;;;;;;;6238078;23;20004;-69
2022/07/25 00:31:09;;;;;;;6.30;5.80;;;;;;;;;;6211801;23;20022;-69
2022/07/25 00:33:35;;;;;;;6.20;5.60;;;;;;;;;;6211612;23;20027;-69
2022/07/25 00:36:02;;;;;;;5.50;5.00;;;;;;;;;;6238239;23;20008;-69
2022/07/25 00:38:28;;;;;;;6.00;5.40;;;;;;;;;;6237129;23;20011;-69
2022/07/25 00:40:54;;;;;;;6.90;6.20;;;;;;;;;;6236130;23;20004;-70
2022/07/25 00:43:20;;;;;;;7.82;6.20;;;;;;;;;;6238589;23;20007;-69
2022/07/25 00:45:46;;;;;;;6.28;5.30;;;;;;;;;;6238947;23;20413;-70
2022/07/25 00:48:13;;;;;;;6.57;5.50;;;;;;;;;;6211405;23;20421;-70
2022/07/25 00:50:40;;;;;;;7.95;5.13;;;;;;;;;;6238947;23;20030;-70
2022/07/25 00:53:06;;;;;;;6.93;5.57;;;;;;;;;;6237678;22;20326;-69
2022/07/25 00:55:33;;;;;;;5.78;5.28;;;;;;;;;;6236033;23;20062;-69
2022/07/25 00:57:59;;;;;;;6.53;5.93;;;;;;;;;;6238407;23;20011;-69
2022/07/25 01:00:25;;;;;;;6.28;5.53;;;;;;;;;;6238140;23;20012;-70
2022/07/25 01:02:51;;;;;;;6.22;5.70;;;;;;;;;;6237798;23;20413;-69
2022/07/25 01:05:18;;;;;;;6.10;5.60;;;;;;;;;;6237260;23;20008;-69
2022/07/25 01:07:44;;;;;;;6.63;5.75;;;;;;;;;;6238281;23;20516;-69
2022/07/25 01:10:10;;;;;;;6.22;5.55;;;;;;;;;;6236164;23;20050;-69
2022/07/25 01:12:50;;;;;;;6.57;5.35;;;;;;;;;;6237701;23;20039;-69
2022/07/25 01:15:17;;;;;;;6.60;5.45;;;;;;;;;;6237727;23;20083;-69
2022/07/25 01:17:44;;;;;;;6.03;5.53;;;;;;;;;;6238477;23;20004;-69
2022/07/25 01:20:14;;;;;;;5.75;5.22;;;;;;;;;;6237292;23;20020;-69
2022/07/25 01:22:40;;;;;;;5.88;5.38;;;;;;;;;;6238130;23;20043;-70
2022/07/25 01:25:06;;;;;;;6.78;5.53;;;;;;;;;;6237948;23;20422;-71
2022/07/25 01:27:32;;;;;;;6.05;5.45;;;;;;;;;;6238554;23;20454;-69
2022/07/25 01:29:58;;;;;;;5.80;5.28;;;;;;;;;;6237277;23;20019;-69
2022/07/25 01:32:24;;;;;;;6.72;6.05;;;;;;;;;;6238140;23;20000;-70
2022/07/25 01:34:51;;;;;;;6.22;5.65;;;;;;;;;;6235993;23;20005;-69
2022/07/25 01:37:17;;;;;;;6.95;5.68;;;;;;;;;;6237738;23;20031;-69
2022/07/25 01:39:43;;;;;;;5.80;5.30;;;;;;;;;;6211047;23;20012;-69
2022/07/25 01:42:09;;;;;;;7.97;5.78;;;;;;;;;;6237743;23;20000;-69
2022/07/25 01:44:35;;;;;;;7.57;6.00;;;;;;;;;;6236192;23;20329;-70
2022/07/25 01:47:01;;;;;;;6.70;5.88;;;;;;;;;;6237895;23;20001;-70
2022/07/25 01:49:27;;;;;;;6.28;4.88;;;;;;;;;;6237577;23;20445;-69
2022/07/25 01:51:54;;;;;;;5.28;4.78;;;;;;;;;;6235666;23;20004;-69
2022/07/25 01:54:20;;;;;;;6.07;5.57;;;;;;;;;;6237440;22;20238;-69
2022/07/25 01:56:46;;;;;;;7.13;5.05;;;;;;;;;;6237295;23;20003;-70
2022/07/25 01:59:12;;;;;;;5.88;5.30;;;;;;;;;;6237552;23;20050;-69
2022/07/25 02:01:38;;;;;;;6.13;5.53;;;;;;;;;;6235598;23;20075;-69
2022/07/25 02:04:04;;;;;;;5.75;5.25;;;;;;;;;;6237480;23;20004;-70
2022/07/25 02:06:33;;;;;;;8.15;5.00;;;;;;;;;;6237868;23;19996;-69
2022/07/25 02:08:59;;;;;;;7.75;5.57;;;;;;;;;;6237732;23;20004;-69
2022/07/25 02:11:25;;;;;;;6.55;5.57;;;;;;;;;;6235873;23;20007;-69
2022/07/25 02:13:51;;;;;;;7.35;5.32;;;;;;;;;;6237069;23;20043;-69
2022/07/25 02:16:17;;;;;;;6.93;5.70;;;;;;;;;;6237428;23;20000;-69
2022/07/25 02:18:44;;;;;;;6.50;5.90;;;;;;;;;;6210745;23;20004;-69
2022/07/25 02:21:10;;;;;;;5.88;5.28;;;;;;;;;;6235801;23;20060;-69
2022/07/25 02:23:37;;;;;;;5.78;5.28;;;;;;;;;;6237056;23;20023;-69
2022/07/25 02:26:04;;;;;;;8.50;5.85;;;;;;;;;;6237177;23;20000;-69
2022/07/25 02:28:30;;;;;;;6.13;5.53;;;;;;;;;;6237760;23;20369;-69
2022/07/25 02:30:56;;;;;;;6.97;5.50;;;;;;;;;;6236603;23;20138;-69
2022/07/25 02:33:22;;;;;;;6.15;5.35;;;;;;;;;;6239661;23;20011;-69
2022/07/25 02:35:49;;;;;;;6.10;5.60;;;;;;;;;;6239699;23;20004;-69
2022/07/25 02:38:18;;;;;;;7.05;5.45;;;;;;;;;;6240036;23;20015;-69
2022/07/25 02:40:48;;;;;;;7.60;5.35;;;;;;;;;;6239674;23;20008;-70
2022/07/25 02:43:15;;;;;;;5.75;5.25;;;;;;;;;;6237308;23;20054;-70
2022/07/25 02:45:41;;;;;;;9.40;6.00;;;;;;;;;;6239730;23;20008;-69
2022/07/25 02:48:07;;;;;;;6.47;5.22;;;;;;;;;;6239965;23;20004;-69
2022/07/25 02:50:33;;;;;;;9.10;5.50;;;;;;;;;;6212748;23;20019;-69
2022/07/25 02:52:59;;;;;;;6.07;5.25;;;;;;;;;;6239932;22;20692;-70
2022/07/25 02:55:25;;;;;;;6.40;5.20;;;;;;;;;;6237546;23;20019;-69
2022/07/25 02:57:52;;;;;;;5.95;5.18;;;;;;;;;;6239477;23;20008;-69
2022/07/25 03:00:18;;;;;;;6.07;4.95;;;;;;;;;;6239474;23;20514;-69
2022/07/25 03:02:44;;;;;;;5.57;5.07;;;;;;;;;;6237341;23;20231;-69
2022/07/25 03:05:12;;;;;;;6.38;5.07;;;;;;;;;;6239613;23;20000;-70
2022/07/25 03:07:38;;;;;;;6.28;5.30;;;;;;;;;;6240073;23;20008;-69
2022/07/25 03:10:05;;;;;;;5.47;4.97;;;;;;;;;;6237159;23;20066;-69
2022/07/25 03:12:32;;;;;;;6.80;5.18;;;;;;;;;;6239287;23;20004;-69
2022/07/25 03:14:58;;;;;;;5.93;5.40;;;;;;;;;;6238929;23;20066;-70
2022/07/25 03:17:25;;;;;;;5.78;5.03;;;;;;;;;;6235434;23;20001;-69
2022/07/25 03:19:51;;;;;;;5.63;4.80;;;;;;;;;;6232768;23;20200;-69
2022/07/25 03:22:17;;;;;;;5.50;5.00;;;;;;;;;;6204401;23;20004;-69
2022/07/25 03:24:43;;;;;;;6.78;5.20;;;;;;;;;;6233441;23;20050;-69
2022/07/25 03:27:09;;;;;;;5.72;4.90;;;;;;;;;;6233231;23;20026;-69
2022/07/25 03:29:36;;;;;;;5.43;4.93;;;;;;;;;;6232892;23;20455;-69
2022/07/25 03:32:02;;;;;;;6.40;5.80;;;;;;;;;;6231462;23;20000;-69
2022/07/25 03:34:28;;;;;;;8.05;5.60;;;;;;;;;;6232617;23;20459;-68
2022/07/25 03:36:54;;;;;;;5.53;5.03;;;;;;;;;;6232551;23;20003;-69
2022/07/25 03:39:20;;;;;;;5.47;4.82;;;;;;;;;;6232382;23;20022;-69
2022/07/25 03:41:46;;;;;;;5.25;4.78;;;;;;;;;;6232659;23;20008;-70
2022/07/25 03:44:13;;;;;;;6.32;5.03;;;;;;;;;;6206080;23;20345;-69
2022/07/25 03:46:39;;;;;;;6.18;4.82;;;;;;;;;;6233407;23;20031;-69
2022/07/25 03:49:05;;;;;;;6.32;5.03;;;;;;;;;;6230755;23;20329;-69
2022/07/25 03:51:31;;;;;;;7.25;4.85;;;;;;;;;;6232003;23;20000;-69
2022/07/25 03:54:00;;;;;;;8.38;5.40;;;;;;;;;;6233248;22;20353;-70
2022/07/25 03:56:27;;;;;;;5.90;5.07;;;;;;;;;;6232711;23;20002;-69
2022/07/25 03:58:53;;;;;;;8.00;5.70;;;;;;;;;;6232402;23;20062;-69
2022/07/25 04:01:19;;;;;;;5.40;4.85;;;;;;;;;;6218745;23;20004;-70
2022/07/25 04:03:46;;;;;;;5.85;5.32;;;;;;;;;;6232122;23;20008;-69
2022/07/25 04:06:12;;;;;;;6.63;5.20;;;;;;;;;;6232730;23;20007;-69
2022/07/25 04:08:38;;;;;;;5.00;4.60;;;;;;;;;;6232354;23;20389;-70
2022/07/25 04:11:04;;;;;;;5.28;4.75;;;;;;;;;;6232481;23;19996;-69
2022/07/25 04:13:30;;;;;;;6.00;5.38;;;;;;;;;;6232155;23;20024;-70
2022/07/25 04:15:56;;;;;;;5.05;4.50;;;;;;;;;;6230986;23;20448;-70
2022/07/25 04:18:22;;;;;;;5.43;4.82;;;;;;;;;;6232637;23;20476;-69
2022/07/25 04:20:49;;;;;;;5.95;5.43;;;;;;;;;;6232297;23;20012;-69
2022/07/25 04:23:15;;;;;;;5.78;5.28;;;;;;;;;;6232602;23;20007;-69
2022/07/25 04:25:41;;;;;;;5.22;4.72;;;;;;;;;;6231905;23;20330;-69
2022/07/25 04:28:07;;;;;;;7.57;5.47;;;;;;;;;;6231954;23;20023;-70
2022/07/25 04:30:33;;;;;;;5.53;5.03;;;;;;;;;;6232452;23;20019;-69
2022/07/25 04:32:59;;;;;;;7.53;6.03;;;;;;;;;;6231868;23;20010;-69
2022/07/25 04:35:25;;;;;;;7.03;5.70;;;;;;;;;;6229632;23;20091;-74
2022/07/25 04:37:52;;;;;;;6.63;6.03;;;;;;;;;;6231953;23;20004;-70
2022/07/25 04:40:18;;;;;;;7.32;6.03;;;;;;;;;;6232090;23;20012;-70
2022/07/25 04:42:44;;;;;;;6.97;5.80;;;;;;;;;;6232380;23;20004;-71
2022/07/25 04:45:10;;;;;;;7.85;5.70;;;;;;;;;;6232215;23;20023;-70
2022/07/25 04:47:36;;;;;;;9.20;5.70;;;;;;;;;;6231933;23;20432;-70
2022/07/25 04:50:03;;;;;;;5.85;5.25;;;;;;;;;;6229477;23;20007;-70
2022/07/25 04:52:29;;;;;;;7.47;5.57;;;;;;;;;;6232792;23;20411;-72
2022/07/25 04:54:55;;;;;;;6.85;5.20;;;;;;;;;;6231846;22;20000;-70
2022/07/25 04:57:21;;;;;;;6.20;5.60;;;;;;;;;;6204912;23;20000;-70
2022/07/25 04:59:47;;;;;;;7.15;5.75;;;;;;;;;;6229258;23;20008;-72
2022/07/25 05:02:13;;;;;;;11.68;7.32;;;;;;;;;;6232064;23;20298;-71
2022/07/25 05:04:40;;;;;;;7.75;6.28;;;;;;;;;;6232617;23;20001;-71
2022/07/25 05:07:06;;;;;;;7.90;7.07;;;;;;;;;;6199387;23;20092;-70
2022/07/25 05:09:32;;;;;;;8.13;6.75;;;;;;;;;;6230090;23;20316;-70
2022/07/25 05:11:58;;;;;;;8.65;7.75;;;;;;;;;;6231106;23;20004;-72
2022/07/25 05:14:24;;;;;;;10.48;6.97;;;;;;;;;;6229758;23;20066;-73
2022/07/25 05:16:50;;;;;;;12.10;7.72;;;;;;;;;;6231739;23;20384;-71
2022/07/25 05:19:16;;;;;;;8.00;7.22;;;;;;;;;;6231089;23;20077;-71
2022/07/25 05:21:43;;;;;;;9.02;7.97;;;;;;;;;;6231662;23;20243;-71
2022/07/25 05:24:09;;;;;;;18.98;8.70;;;;;;;;;;6230847;23;20065;-71
2022/07/25 05:26:35;;;;;;;11.27;8.48;;;;;;;;;;6231767;23;20000;-73
2022/07/25 05:29:01;;;;;;;8.20;7.40;;;;;;;;;;6229433;23;20015;-71
2022/07/25 05:31:27;;;;;;;13.05;8.65;;;;;;;;;;6229079;23;20307;-70
2022/07/25 05:33:53;;;;;;;9.68;8.73;;;;;;;;;;6230422;23;20004;-71
2022/07/25 05:36:19;;;;;;;12.95;10.40;;;;;;;;;;6219342;23;20035;-73
2022/07/25 05:38:45;;;;;;;19.60;9.73;;;;;;;;;;6231579;23;20012;-70
2022/07/25 05:41:12;;;;;;;18.48;10.23;;;;;;;;;;6231877;23;20011;-70
2022/07/25 05:43:38;;;;;;;16.10;10.23;;;;;;;;;;6231612;23;20004;-70
2022/07/25 05:46:05;;;;;;;11.48;9.82;;;;;;;;;;6204968;23;20004;-71
2022/07/25 05:48:31;;;;;;;12.20;8.82;;;;;;;;;;6230366;23;20306;-73
2022/07/25 05:50:58;;;;;;;17.52;9.02;;;;;;;;;;6231765;23;20480;-73
2022/07/25 05:53:24;;;;;;;10.40;8.98;;;;;;;;;;6231319;22;20081;-74
2022/07/25 05:55:51;;;;;;;11.32;9.27;;;;;;;;;;6231756;23;20031;-72
2022/07/25 05:58:17;;;;;;;16.88;7.95;;;;;;;;;;6229427;23;20211;-70
2022/07/25 06:00:43;;;;;;;9.18;8.30;;;;;;;;;;6231419;23;20015;-70
2022/07/25 06:03:09;;;;;;;9.93;8.27;;;;;;;;;;6231622;23;20066;-70
2022/07/25 06:05:35;;;;;;;11.18;8.73;;;;;;;;;;6231167;23;20008;-70
2022/07/25 06:08:01;;;;;;;11.27;9.13;;;;;;;;;;6230120;23;20000;-71
2022/07/25 06:10:27;;;;;;;10.98;8.82;;;;;;;;;;6231373;23;20004;-70
2022/07/25 06:12:54;;;;;;;11.85;9.73;;;;;;;;;;6231967;23;20012;-70
2022/07/25 06:15:20;;;;;;;10.27;7.07;;;;;;;;;;6229874;23;20016;-70
2022/07/25 06:17:46;;;;;;;7.50;6.80;;;;;;;;;;6231024;23;20031;-70
2022/07/25 06:20:12;;;;;;;7.65;6.57;;;;;;;;;;6231276;23;20012;-72
2022/07/25 06:22:39;;;;;;;9.93;6.88;;;;;;;;;;6231053;23;20484;-71
2022/07/25 06:25:05;;;;;;;8.13;6.65;;;;;;;;;;6231047;23;20011;-71
2022/07/25 06:27:31;;;;;;;10.25;7.07;;;;;;;;;;6229345;23;20001;-70
2022/07/25 06:29:58;;;;;;;10.23;6.90;;;;;;;;;;6231967;23;20027;-70
2022/07/25 06:32:24;;;;;;;7.95;6.40;;;;;;;;;;6231053;23;20080;-70
2022/07/25 06:34:50;;;;;;;6.18;5.68;;;;;;;;;;6230784;23;20006;-70
2022/07/25 06:37:16;;;;;;;6.40;5.50;;;;;;;;;;6202840;23;20016;-70
2022/07/25 06:39:42;;;;;;;5.90;5.30;;;;;;;;;;6231099;23;20012;-70
2022/07/25 06:42:08;;;;;;;5.45;4.95;;;;;;;;;;6204463;23;20004;-71
2022/07/25 06:44:35;;;;;;;5.75;5.13;;;;;;;;;;6231287;23;20432;-71
2022/07/25 06:47:01;;;;;;;6.65;5.15;;;;;;;;;;6229535;23;20000;-70
2022/07/25 06:49:28;;;;;;;5.43;4.93;;;;;;;;;;6231912;23;20004;-71
2022/07/25 06:51:54;;;;;;;7.95;4.90;;;;;;;;;;6231286;23;20412;-70
2022/07/25 06:54:20;;;;;;;5.50;4.90;;;;;;;;;;6230041;22;20433;-71
2022/07/25 06:56:46;;;;;;;5.78;5.28;;;;;;;;;;6231094;23;19996;-71
2022/07/25 06:59:12;;;;;;;9.23;5.43;;;;;;;;;;6230722;23;20314;-70
2022/07/25 07:01:38;;;;;;;5.80;5.22;;;;;;;;;;6231303;23;20406;-75
2022/07/25 07:04:04;;;;;;;5.82;5.32;;;;;;;;;;6227384;23;20008;-74
2022/07/25 07:06:31;;;;;;;6.03;5.40;;;;;;;;;;6203407;23;20012;-74
2022/07/25 07:08:57;;;;;;;10.57;6.63;;;;;;;;;;6228997;23;20392;-73
2022/07/25 07:11:23;;;;;;;7.38;6.03;;;;;;;;;;6231225;23;20001;-74
2022/07/25 07:13:49;;;;;;;8.52;6.00;;;;;;;;;;6231162;23;20012;-73
2022/07/25 07:16:15;;;;;;;8.50;6.45;;;;;;;;;;6230767;23;19997;-74
2022/07/25 07:18:41;;;;;;;6.95;6.25;;;;;;;;;;6230200;23;20008;-74
2022/07/25 07:21:08;;;;;;;9.80;7.03;;;;;;;;;;6232291;23;20388;-75
2022/07/25 07:23:34;;;;;;;7.72;6.25;;;;;;;;;;6232995;23;20083;-74
2022/07/25 07:26:01;;;;;;;8.52;6.28;;;;;;;;;;6232544;23;20008;-73
2022/07/25 07:28:27;;;;;;;12.32;6.82;;;;;;;;;;6232565;23;20004;-73
2022/07/25 07:30:53;;;;;;;7.95;5.90;;;;;;;;;;6229991;23;20077;-76
2022/07/25 07:33:19;;;;;;;7.75;6.07;;;;;;;;;;6231583;23;20040;-72
2022/07/25 07:35:46;;;;;;;6.40;5.80;;;;;;;;;;6206069;23;20377;-75
2022/07/25 07:38:12;;;;;;;9.30;6.05;;;;;;;;;;6232848;23;20054;-74
2022/07/25 07:40:38;;;;;;;6.43;5.78;;;;;;;;;;6232604;23;20188;-74
2022/07/25 07:43:05;;;;;;;6.43;5.70;;;;;;;;;;6231919;23;20321;-74
2022/07/25 07:45:31;;;;;;;6.00;5.43;;;;;;;;;;6230711;23;20011;-74
2022/07/25 07:47:57;;;;;;;6.13;5.53;;;;;;;;;;6232201;22;19999;-74
2022/07/25 07:50:25;;;;;;;7.28;5.95;;;;;;;;;;6232195;23;20004;-75
2022/07/25 07:52:51;;;;;;;6.32;5.50;;;;;;;;;;6232499;22;20031;-74
2022/07/25 07:58:02;;;;;;;7.85;5.88;;;;;;;;;;6230703;23;20015;-75
2022/07/25 08:00:34;;;;;;;5.80;5.20;;;;;;;;;;6230117;23;20019;-71
2022/07/25 08:03:01;;;;;;;5.15;4.70;;;;;;;;;;6231943;23;20014;-75
2022/07/25 08:05:30;;;;;;;8.30;6.28;;;;;;;;;;6232387;23;20460;-75
2022/07/25 08:07:56;;;;;;;5.45;4.95;;;;;;;;;;6204998;23;20421;-75
2022/07/25 08:10:27;;;;;;;5.80;5.22;;;;;;;;;;6229705;23;20015;-75
2022/07/25 08:12:53;;;;;;;6.05;5.30;;;;;;;;;;6231369;23;20011;-76
2022/07/25 08:15:20;;;;;;;5.80;5.20;;;;;;;;;;6232324;23;20000;-75
2022/07/25 08:17:48;;;;;;;6.78;4.80;;;;;;;;;;6229390;23;20351;-71
2022/07/25 08:20:14;;;;;;;5.47;4.97;;;;;;;;;;6231454;23;20020;-75
2022/07/25 08:22:41;;;;;;;5.07;4.68;;;;;;;;;;6232389;23;20009;-74
2022/07/25 08:25:09;;;;;;;5.50;5.00;;;;;;;;;;6206238;23;20211;-71
2022/07/25 08:27:35;;;;;;;4.97;4.57;;;;;;;;;;6231936;23;20062;-75
2022/07/25 08:30:02;;;;;;;5.28;4.75;;;;;;;;;;6230035;23;20448;-74
2022/07/25 08:32:28;;;;;;;4.88;4.43;;;;;;;;;;6231798;23;20508;-74
2022/07/25 08:34:55;;;;;;;5.40;4.90;;;;;;;;;;6230632;23;20001;-77
2022/07/25 08:37:21;;;;;;;6.57;4.38;;;;;;;;;;6232256;23;20486;-77
2022/07/25 08:39:47;;;;;;;5.43;4.93;;;;;;;;;;6232224;23;20043;-76
2022/07/25 08:42:14;;;;;;;5.88;4.43;;;;;;;;;;6231557;23;20005;-74
2022/07/25 08:44:42;;;;;;;9.07;4.65;;;;;;;;;;6229666;23;20004;-73
2022/07/25 08:47:09;;;;;;;5.13;4.50;;;;;;;;;;6232097;23;20352;-77
2022/07/25 08:49:35;;;;;;;5.38;4.35;;;;;;;;;;6230854;23;20075;-78
2022/07/25 08:52:03;;;;;;;5.35;4.25;;;;;;;;;;6231166;23;20006;-73
2022/07/25 08:54:30;;;;;;;5.00;4.15;;;;;;;;;;6231716;22;20000;-77
2022/07/25 08:56:57;;;;;;;5.35;4.38;;;;;;;;;;6231482;23;20026;-77
2022/07/25 08:59:23;;;;;;;7.35;4.38;;;;;;;;;;6229296;23;20019;-77
2022/07/25 09:01:49;;;;;;;4.93;4.47;;;;;;;;;;6231464;23;19996;-73
2022/07/25 09:04:15;;;;;;;4.80;4.40;;;;;;;;;;6205531;23;20004;-78
2022/07/25 09:06:51;;;;;;;6.78;4.60;;;;;;;;;;6231865;23;20004;-79
2022/07/25 09:09:17;;;;;;;7.35;4.85;;;;;;;;;;6231768;23;20007;-73
2022/07/25 09:11:44;;;;;;;4.85;4.30;;;;;;;;;;6229628;23;20071;-77
2022/07/25 09:14:12;;;;;;;4.95;4.45;;;;;;;;;;6230514;23;20047;-79
2022/07/25 09:16:39;;;;;;;5.32;4.80;;;;;;;;;;6231414;23;20000;-76
2022/07/25 09:19:10;;;;;;;5.97;4.70;;;;;;;;;;6230605;23;20349;-73
2022/07/25 09:21:36;;;;;;;5.90;4.43;;;;;;;;;;6230712;23;20088;-77
2022/07/25 09:24:08;;;;;;;5.38;4.80;;;;;;;;;;6231099;23;19996;-76
2022/07/25 09:26:45;;;;;;;4.97;4.32;;;;;;;;;;6231873;23;20062;-72
2022/07/25 09:29:30;;;;;;;5.22;4.15;;;;;;;;;;6228842;23;20009;-74
2022/07/25 09:31:57;;;;;;;5.47;4.30;;;;;;;;;;6230750;23;20545;-76
2022/07/25 09:34:39;;;;;;;6.60;4.03;;;;;;;;;;6231252;23;20182;-75
2022/07/25 09:37:07;;;;;;;6.70;4.60;;;;;;;;;;6230995;23;20020;-79
2022/07/25 09:39:38;;;;;;;4.65;4.10;;;;;;;;;;6230897;23;20448;-76
2022/07/25 09:42:15;;;;;;;6.68;4.38;;;;;;;;;;6228587;23;20000;-75
2022/07/25 09:44:41;;;;;;;4.78;4.38;;;;;;;;;;6230969;23;20452;-76
2022/07/25 09:47:11;;;;;;;6.63;4.57;;;;;;;;;;6230486;23;20007;-75
2022/07/25 09:49:42;;;;;;;4.97;4.30;;;;;;;;;;6230724;23;20492;-75
2022/07/25 09:52:09;;;;;;;4.95;4.47;;;;;;;;;;6228985;23;20004;-78
2022/07/25 09:54:35;;;;;;;6.15;4.63;;;;;;;;;;6230662;22;20543;-75
2022/07/25 09:57:01;;;;;;;4.80;4.28;;;;;;;;;;6204248;23;20008;-76
2022/07/25 09:59:27;;;;;;;6.53;4.70;;;;;;;;;;6230559;23;20019;-73
2022/07/25 10:02:17;;;;;;;4.43;4.03;;;;;;;;;;6228528;23;20461;-73
2022/07/25 10:04:50;;;;;;;5.88;3.92;;;;;;;;;;6230319;23;20062;-76
2022/07/25 10:07:19;;;;;;;4.75;4.15;;;;;;;;;;6230452;23;20045;-76
2022/07/25 10:09:46;;;;;;;4.72;4.32;;;;;;;;;;6231336;23;20075;-74
2022/07/25 10:12:14;;;;;;;4.57;4.18;;;;;;;;;;6229653;23;20581;-76
2022/07/25 10:14:40;;;;;;;4.40;4.00;;;;;;;;;;6230115;23;20075;-77
2022/07/25 10:17:07;;;;;;;5.03;4.55;;;;;;;;;;6228435;23;20019;-76
2022/07/25 10:19:41;;;;;;;5.60;4.10;;;;;;;;;;6230792;23;20004;-77
2022/07/25 10:22:07;;;;;;;6.80;4.47;;;;;;;;;;6230648;23;20429;-77
2022/07/25 10:24:34;;;;;;;4.88;4.03;;;;;;;;;;6230597;23;20000;-77
2022/07/25 10:27:07;;;;;;;4.97;4.57;;;;;;;;;;6228883;23;20322;-77
2022/07/25 10:29:34;;;;;;;7.15;4.63;;;;;;;;;;6230950;23;20083;-76
2022/07/25 10:32:08;;;;;;;4.78;4.20;;;;;;;;;;6230631;23;20008;-75
2022/07/25 10:34:35;;;;;;;4.72;4.22;;;;;;;;;;6230597;23;20556;-77
2022/07/25 10:37:17;;;;;;;5.47;4.00;;;;;;;;;;6231115;23;20123;-79
2022/07/25 10:39:45;;;;;;;4.90;4.32;;;;;;;;;;6229489;23;20012;-79
2022/07/25 10:42:20;;;;;;;4.78;4.28;;;;;;;;;;6230408;23;20051;-75
2022/07/25 10:44:50;;;;;;;7.55;4.30;;;;;;;;;;6230891;23;20498;-76
2022/07/25 10:47:17;;;;;;;4.72;4.05;;;;;;;;;;6229924;23;20008;-78
2022/07/25 10:49:46;;;;;;;4.20;3.78;;;;;;;;;;6229581;23;20000;-80
2022/07/25 10:52:16;;;;;;;6.47;4.20;;;;;;;;;;6231507;22;19996;-74
2022/07/25 10:54:52;;;;;;;4.18;3.85;;;;;;;;;;6233179;23;20802;-80
2022/07/25 10:57:19;;;;;;;4.95;4.15;;;;;;;;;;6232471;23;20601;-79
2022/07/25 10:59:45;;;;;;;5.95;4.00;;;;;;;;;;6232915;23;20015;-77
2022/07/25 11:02:15;;;;;;;4.32;4.00;;;;;;;;;;6231918;23;20000;-80
2022/07/25 11:04:44;;;;;;;4.10;3.58;;;;;;;;;;6230463;23;20008;-78
2022/07/25 11:07:11;;;;;;;4.82;3.92;;;;;;;;;;6232782;23;20011;-80
2022/07/25 11:09:38;;;;;;;7.10;3.78;;;;;;;;;;6233230;23;20004;-78
2022/07/25 11:12:04;;;;;;;4.40;4.00;;;;;;;;;;6231788;23;20011;-78
2022/07/25 11:14:32;;;;;;;6.07;4.00;;;;;;;;;;6233256;23;20099;-79
2022/07/25 11:17:09;;;;;;;4.70;4.30;;;;;;;;;;6230997;23;20003;-79
2022/07/25 11:19:36;;;;;;;4.93;4.03;;;;;;;;;;6231904;23;20095;-79
2022/07/25 11:22:05;;;;;;;4.13;3.72;;;;;;;;;;6231744;23;19996;-75
2022/07/25 11:24:39;;;;;;;5.07;4.28;;;;;;;;;;6230911;23;20008;-77
2022/07/25 11:27:06;;;;;;;5.60;3.90;;;;;;;;;;6232305;23;20000;-77
2022/07/25 11:29:33;;;;;;;5.75;4.13;;;;;;;;;;6232494;23;20004;-76
2022/07/25 11:32:01;;;;;;;4.80;4.20;;;;;;;;;;6232618;23;20004;-76
2022/07/25 11:34:28;;;;;;;4.35;3.97;;;;;;;;;;6204604;23;20086;-76
2022/07/25 11:36:56;;;;;;;4.40;4.00;;;;;;;;;;6231694;23;20000;-75
2022/07/25 11:39:29;;;;;;;4.28;3.88;;;;;;;;;;6229858;23;20058;-77
2022/07/25 11:42:03;;;;;;;5.82;3.88;;;;;;;;;;6231682;23;20061;-78
2022/07/25 11:44:33;;;;;;;4.53;4.13;;;;;;;;;;6231969;23;20004;-77
2022/07/25 11:47:00;;;;;;;4.80;3.97;;;;;;;;;;6232250;23;20382;-76
2022/07/25 11:49:26;;;;;;;4.55;3.92;;;;;;;;;;6232449;23;20000;-74
2022/07/25 11:51:52;;;;;;;4.60;4.10;;;;;;;;;;6229567;23;19996;-76
2022/07/25 11:54:19;;;;;;;4.05;3.75;;;;;;;;;;6231822;22;20452;-77
2022/07/25 11:56:46;;;;;;;4.20;3.78;;;;;;;;;;6231902;23;20432;-75
2022/07/25 11:59:12;;;;;;;6.00;4.35;;;;;;;;;;6231346;23;20093;-77
2022/07/25 12:01:43;;;;;;;6.68;4.07;;;;;;;;;;6231005;23;20004;-76
2022/07/25 12:04:09;;;;;;;;;;;;;;;;;;6232503;23;20003;-75
2022/07/25 12:06:35;;;;;;;5.25;4.10;;;;;;;;;;6231634;23;19904;-73
2022/07/25 12:09:18;;;;;;;4.30;3.90;;;;;;;;;;6232249;23;20134;-74
2022/07/25 12:11:44;;;;;;;5.18;4.03;;;;;;;;;;6229888;23;20042;-76
2022/07/25 12:14:11;;;;;;;4.82;3.95;;;;;;;;;;6232052;23;20091;-76
2022/07/25 12:16:37;;;;;;;4.43;3.60;;;;;;;;;;6231537;23;20000;-77
2022/07/25 12:19:04;;;;;;;4.28;3.88;;;;;;;;;;6230588;23;20004;-75
2022/07/25 12:21:31;;;;;;;5.68;4.00;;;;;;;;;;6231967;23;20031;-73
2022/07/25 12:23:57;;;;;;;4.10;3.80;;;;;;;;;;6230256;23;20004;-73
2022/07/25 12:26:23;;;;;;;6.95;4.25;;;;;;;;;;6232003;23;20075;-75
2022/07/25 12:28:49;;;;;;;5.53;4.40;;;;;;;;;;6232504;23;20440;-74
2022/07/25 12:31:15;;;;;;;4.13;3.72;;;;;;;;;;6232029;23;20107;-77
2022/07/25 12:33:41;;;;;;;4.18;3.78;;;;;;;;;;6231591;23;20000;-76
2022/07/25 12:36:11;;;;;;;4.35;3.50;;;;;;;;;;6232005;23;20079;-74
2022/07/25 12:38:37;;;;;;;3.80;3.45;;;;;;;;;;6230133;23;20425;-76
2022/07/25 12:41:03;;;;;;;4.72;3.88;;;;;;;;;;6231263;23;20328;-76
2022/07/25 12:43:29;;;;;;;4.70;3.70;;;;;;;;;;6231244;23;20004;-75
2022/07/25 12:45:56;;;;;;;4.60;3.67;;;;;;;;;;6232447;23;20028;-73
2022/07/25 12:48:22;;;;;;;4.85;4.13;;;;;;;;;;6231066;23;20511;-72
2022/07/25 12:50:48;;;;;;;5.18;4.15;;;;;;;;;;6229432;23;19996;-76
2022/07/25 12:53:14;;;;;;;4.65;4.10;;;;;;;;;;6231482;22;20000;-73
2022/07/25 12:55:41;;;;;;;4.43;4.03;;;;;;;;;;6231290;23;20015;-72
2022/07/25 12:58:07;;;;;;;4.35;3.95;;;;;;;;;;6232614;23;20032;-76
2022/07/25 13:00:34;;;;;;;4.45;3.92;;;;;;;;;;6231466;23;20016;-76
2022/07/25 13:03:00;;;;;;;5.55;4.13;;;;;;;;;;6205051;23;20053;-75
2022/07/25 13:05:26;;;;;;;5.10;3.72;;;;;;;;;;6229556;23;20007;-72
2022/07/25 13:07:52;;;;;;;5.25;4.10;;;;;;;;;;6231742;23;19999;-74
2022/07/25 13:10:19;;;;;;;5.25;4.38;;;;;;;;;;6231779;22;20004;-74
2022/07/25 13:12:46;;;;;;;4.35;3.92;;;;;;;;;;6231133;23;20030;-76
2022/07/25 13:15:12;;;;;;;4.45;3.90;;;;;;;;;;6229940;23;20065;-74
2022/07/25 13:17:39;;;;;;;5.22;4.20;;;;;;;;;;6231497;23;20004;-72
2022/07/25 13:20:05;;;;;;;7.13;4.18;;;;;;;;;;6231648;23;20016;-74
2022/07/25 13:22:31;;;;;;;4.28;3.63;;;;;;;;;;6231286;23;20632;-75
2022/07/25 13:24:58;;;;;;;5.30;3.72;;;;;;;;;;6231995;23;20072;-76
2022/07/25 13:27:24;;;;;;;4.90;4.40;;;;;;;;;;6231531;23;20000;-72
2022/07/25 13:29:53;;;;;;;5.57;4.18;;;;;;;;;;6229494;23;20373;-76
2022/07/25 13:32:20;;;;;;;4.55;4.00;;;;;;;;;;6231497;23;20384;-75
2022/07/25 13:34:46;;;;;;;5.30;4.00;;;;;;;;;;6231349;23;20019;-76
2022/07/25 13:37:12;;;;;;;5.03;4.13;;;;;;;;;;6229833;23;20008;-74
2022/07/25 13:39:41;;;;;;;3.95;3.60;;;;;;;;;;6231332;23;20020;-75
2022/07/25 13:42:07;;;;;;;4.25;3.85;;;;;;;;;;6231543;23;20066;-76
2022/07/25 13:44:33;;;;;;;5.20;3.63;;;;;;;;;;6231346;23;20079;-72
2022/07/25 13:47:00;;;;;;;4.47;3.90;;;;;;;;;;6231680;23;20004;-75
2022/07/25 13:49:26;;;;;;;5.90;3.83;;;;;;;;;;6231698;23;20260;-75
2022/07/25 13:51:52;;;;;;;4.78;4.00;;;;;;;;;;6229803;23;20058;-75
2022/07/25 13:54:19;;;;;;;4.93;4.18;;;;;;;;;;6231326;22;20011;-74
2022/07/25 13:56:46;;;;;;;4.80;4.10;;;;;;;;;;6231288;23;20026;-75
2022/07/25 13:59:12;;;;;;;5.00;4.50;;;;;;;;;;6231400;23;20004;-74
2022/07/25 14:01:39;;;;;;;5.13;4.00;;;;;;;;;;6203144;23;20004;-75
2022/07/25 14:04:05;;;;;;;6.88;4.00;;;;;;;;;;6231260;23;20313;-72
2022/07/25 14:06:31;;;;;;;4.53;3.80;;;;;;;;;;6231833;23;20012;-75
2022/07/25 14:08:57;;;;;;;4.10;3.78;;;;;;;;;;6231070;23;19996;-75
2022/07/25 14:11:23;;;;;;;7.22;3.83;;;;;;;;;;6228581;23;20892;-71
2022/07/25 14:13:50;;;;;;;4.00;3.60;;;;;;;;;;6230828;23;20008;-75
2022/07/25 14:16:18;;;;;;;4.60;4.15;;;;;;;;;;6231326;23;20058;-75
2022/07/25 14:18:44;;;;;;;4.10;3.70;;;;;;;;;;6230982;23;20004;-75
2022/07/25 14:21:11;;;;;;;5.75;3.72;;;;;;;;;;6231269;23;20012;-75
2022/07/25 14:23:37;;;;;;;4.43;3.70;;;;;;;;;;6231580;23;20024;-76
2022/07/25 14:26:03;;;;;;;4.45;3.97;;;;;;;;;;6228821;23;20081;-75
2022/07/25 14:28:29;;;;;;;6.43;4.25;;;;;;;;;;6233547;23;19997;-74
2022/07/25 14:30:55;;;;;;;7.70;4.35;;;;;;;;;;6233090;23;20081;-75
2022/07/25 14:33:22;;;;;;;4.65;3.67;;;;;;;;;;6233609;23;20082;-74
2022/07/25 14:35:48;;;;;;;4.32;4.00;;;;;;;;;;6206289;23;20008;-73
2022/07/25 14:38:14;;;;;;;4.18;3.78;;;;;;;;;;6231302;23;20379;-74
2022/07/25 14:40:40;;;;;;;5.05;4.03;;;;;;;;;;6233062;23;20012;-75
2022/07/25 14:43:06;;;;;;;4.68;4.22;;;;;;;;;;6233047;23;20067;-75
2022/07/25 14:45:33;;;;;;;4.65;3.75;;;;;;;;;;6230681;23;20024;-72